sensor_id;sensor_type;location;lat;lon;timestamp;pressure;altitude;pressure_sealevel;temperature
9985;BMP180;16737;50.932;6.780;2023-04-24T00:02:15;98864.00;;;16.30
9985;BMP180;16737;50.932;6.780;2023-04-24T00:04:42;98862.00;;;16.30
9985;BMP180;16737;50.932;6.780;2023-04-24T00:07:10;98867.00;;;16.20
9985;BMP180;16737;50.932;6.780;2023-04-24T00:09:38;98858.00;;;16.20
9985;BMP180;16737;50.932;6.780;2023-04-24T00:12:06;98850.00;;;16.20
9985;BMP180;16737;50.932;6.780;2023-04-24T00:14:40;98851.00;;;16.20
9985;BMP180;16737;50.932;6.780;2023-04-24T00:17:07;98840.00;;;16.20
9985;BMP180;16737;50.932;6.780;2023-04-24T00:19:34;98850.00;;;16.20
9985;BMP180;16737;50.932;6.780;2023-04-24T00:22:02;98852.00;;;16.20
9985;BMP180;16737;50.932;6.780;2023-04-24T00:24:29;98860.00;;;16.20
9985;BMP180;16737;50.932;6.780;2023-04-24T00:26:56;98843.00;;;16.20
9985;BMP180;16737;50.932;6.780;2023-04-24T00:29:24;98853.00;;;16.20
9985;BMP180;16737;50.932;6.780;2023-04-24T00:31:55;98852.00;;;16.10
9985;BMP180;16737;50.932;6.780;2023-04-24T00:34:23;98854.00;;;16.10
9985;BMP180;16737;50.932;6.780;2023-04-24T00:36:50;98853.00;;;16.10
9985;BMP180;16737;50.932;6.780;2023-04-24T00:39:17;98858.00;;;16.10
9985;BMP180;16737;50.932;6.780;2023-04-24T00:41:45;98851.00;;;16.10
9985;BMP180;16737;50.932;6.780;2023-04-24T00:44:13;98842.00;;;16.10
9985;BMP180;16737;50.932;6.780;2023-04-24T00:46:41;98849.00;;;16.10
9985;BMP180;16737;50.932;6.780;2023-04-24T00:49:10;98846.00;;;16.10
9985;BMP180;16737;50.932;6.780;2023-04-24T00:51:38;98844.00;;;16.00
9985;BMP180;16737;50.932;6.780;2023-04-24T00:54:13;98842.00;;;16.00
9985;BMP180;16737;50.932;6.780;2023-04-24T00:56:41;98845.00;;;16.00
9985;BMP180;16737;50.932;6.780;2023-04-24T00:59:12;98843.00;;;16.00
9985;BMP180;16737;50.932;6.780;2023-04-24T01:01:40;98826.00;;;16.00
9985;BMP180;16737;50.932;6.780;2023-04-24T01:04:10;98847.00;;;15.90
9985;BMP180;16737;50.932;6.780;2023-04-24T01:06:39;98855.00;;;15.90
9985;BMP180;16737;50.932;6.780;2023-04-24T01:09:07;98853.00;;;15.80
9985;BMP180;16737;50.932;6.780;2023-04-24T01:11:34;98849.00;;;15.80
9985;BMP180;16737;50.932;6.780;2023-04-24T01:14:02;98853.00;;;15.80
9985;BMP180;16737;50.932;6.780;2023-04-24T01:16:29;98840.00;;;15.70
9985;BMP180;16737;50.932;6.780;2023-04-24T01:18:56;98850.00;;;15.50
9985;BMP180;16737;50.932;6.780;2023-04-24T01:21:28;98835.00;;;15.60
9985;BMP180;16737;50.932;6.780;2023-04-24T01:23:58;98837.00;;;15.60
9985;BMP180;16737;50.932;6.780;2023-04-24T01:26:25;98853.00;;;15.50
9985;BMP180;16737;50.932;6.780;2023-04-24T01:28:52;98853.00;;;15.50
9985;BMP180;16737;50.932;6.780;2023-04-24T01:31:20;98856.00;;;15.40
9985;BMP180;16737;50.932;6.780;2023-04-24T01:33:47;98854.00;;;15.30
9985;BMP180;16737;50.932;6.780;2023-04-24T01:36:16;98871.00;;;15.20
9985;BMP180;16737;50.932;6.780;2023-04-24T01:38:44;98864.00;;;15.20
9985;BMP180;16737;50.932;6.780;2023-04-24T01:41:12;98861.00;;;15.10
9985;BMP180;16737;50.932;6.780;2023-04-24T01:43:39;98861.00;;;15.00
9985;BMP180;16737;50.932;6.780;2023-04-24T01:46:07;98879.00;;;15.00
9985;BMP180;16737;50.932;6.780;2023-04-24T01:48:34;98871.00;;;14.90
9985;BMP180;16737;50.932;6.780;2023-04-24T01:51:02;98878.00;;;14.90
9985;BMP180;16737;50.932;6.780;2023-04-24T01:53:29;98878.00;;;14.80
9985;BMP180;16737;50.932;6.780;2023-04-24T01:55:56;98875.00;;;14.70
9985;BMP180;16737;50.932;6.780;2023-04-24T01:58:26;98871.00;;;14.70
9985;BMP180;16737;50.932;6.780;2023-04-24T02:00:55;98858.00;;;14.60
9985;BMP180;16737;50.932;6.780;2023-04-24T02:03:23;98874.00;;;14.50
9985;BMP180;16737;50.932;6.780;2023-04-24T02:05:50;98864.00;;;14.40
9985;BMP180;16737;50.932;6.780;2023-04-24T02:08:17;98872.00;;;14.40
9985;BMP180;16737;50.932;6.780;2023-04-24T02:10:44;98864.00;;;14.30
9985;BMP180;16737;50.932;6.780;2023-04-24T02:13:11;98864.00;;;14.20
9985;BMP180;16737;50.932;6.780;2023-04-24T02:15:39;98873.00;;;14.20
9985;BMP180;16737;50.932;6.780;2023-04-24T02:18:06;98866.00;;;14.20
9985;BMP180;16737;50.932;6.780;2023-04-24T02:20:33;98865.00;;;14.20
9985;BMP180;16737;50.932;6.780;2023-04-24T02:23:01;98863.00;;;14.20
9985;BMP180;16737;50.932;6.780;2023-04-24T02:25:28;98863.00;;;14.20
9985;BMP180;16737;50.932;6.780;2023-04-24T02:27:55;98862.00;;;14.20
9985;BMP180;16737;50.932;6.780;2023-04-24T02:30:22;98838.00;;;14.10
9985;BMP180;16737;50.932;6.780;2023-04-24T02:32:50;98865.00;;;14.20
9985;BMP180;16737;50.932;6.780;2023-04-24T02:35:17;98873.00;;;14.20
9985;BMP180;16737;50.932;6.780;2023-04-24T02:37:44;98878.00;;;14.20
9985;BMP180;16737;50.932;6.780;2023-04-24T02:40:11;98864.00;;;14.20
9985;BMP180;16737;50.932;6.780;2023-04-24T02:42:38;98882.00;;;14.20
9985;BMP180;16737;50.932;6.780;2023-04-24T02:45:07;98862.00;;;14.20
9985;BMP180;16737;50.932;6.780;2023-04-24T02:47:34;98849.00;;;14.20
9985;BMP180;16737;50.932;6.780;2023-04-24T02:50:03;98884.00;;;14.10
9985;BMP180;16737;50.932;6.780;2023-04-24T02:52:30;98896.00;;;14.10
9985;BMP180;16737;50.932;6.780;2023-04-24T02:54:56;98890.00;;;14.10
9985;BMP180;16737;50.932;6.780;2023-04-24T02:57:23;98873.00;;;14.20
9985;BMP180;16737;50.932;6.780;2023-04-24T02:59:50;98893.00;;;14.20
9985;BMP180;16737;50.932;6.780;2023-04-24T03:02:17;98899.00;;;14.20
9985;BMP180;16737;50.932;6.780;2023-04-24T03:04:44;98891.00;;;14.10
9985;BMP180;16737;50.932;6.780;2023-04-24T03:07:14;98862.00;;;14.10
9985;BMP180;16737;50.932;6.780;2023-04-24T03:09:42;98900.00;;;14.10
9985;BMP180;16737;50.932;6.780;2023-04-24T03:12:09;98898.00;;;14.10
9985;BMP180;16737;50.932;6.780;2023-04-24T03:14:35;98887.00;;;14.10
9985;BMP180;16737;50.932;6.780;2023-04-24T03:17:02;98887.00;;;14.10
9985;BMP180;16737;50.932;6.780;2023-04-24T03:19:30;98900.00;;;14.10
9985;BMP180;16737;50.932;6.780;2023-04-24T03:21:57;98900.00;;;14.10
9985;BMP180;16737;50.932;6.780;2023-04-24T03:24:25;98888.00;;;14.00
9985;BMP180;16737;50.932;6.780;2023-04-24T03:26:53;98897.00;;;14.00
9985;BMP180;16737;50.932;6.780;2023-04-24T03:29:22;98895.00;;;14.00
9985;BMP180;16737;50.932;6.780;2023-04-24T03:31:49;98900.00;;;14.00
9985;BMP180;16737;50.932;6.780;2023-04-24T03:34:16;98882.00;;;14.00
9985;BMP180;16737;50.932;6.780;2023-04-24T03:36:43;98897.00;;;14.00
9985;BMP180;16737;50.932;6.780;2023-04-24T03:39:13;98878.00;;;14.00
9985;BMP180;16737;50.932;6.780;2023-04-24T03:41:41;98898.00;;;14.00
9985;BMP180;16737;50.932;6.780;2023-04-24T03:44:08;98898.00;;;14.00
9985;BMP180;16737;50.932;6.780;2023-04-24T03:46:35;98907.00;;;14.00
9985;BMP180;16737;50.932;6.780;2023-04-24T03:49:01;98901.00;;;14.00
9985;BMP180;16737;50.932;6.780;2023-04-24T03:51:28;98904.00;;;14.00
9985;BMP180;16737;50.932;6.780;2023-04-24T03:53:57;98900.00;;;14.00
9985;BMP180;16737;50.932;6.780;2023-04-24T03:56:23;98897.00;;;14.00
9985;BMP180;16737;50.932;6.780;2023-04-24T03:58:52;98900.00;;;14.00
9985;BMP180;16737;50.932;6.780;2023-04-24T04:01:19;98894.00;;;13.90
9985;BMP180;16737;50.932;6.780;2023-04-24T04:03:47;98897.00;;;13.90
9985;BMP180;16737;50.932;6.780;2023-04-24T04:06:14;98913.00;;;13.90
9985;BMP180;16737;50.932;6.780;2023-04-24T04:08:41;98901.00;;;13.90
9985;BMP180;16737;50.932;6.780;2023-04-24T04:11:08;98892.00;;;13.90
9985;BMP180;16737;50.932;6.780;2023-04-24T04:13:35;98893.00;;;13.90
9985;BMP180;16737;50.932;6.780;2023-04-24T04:16:03;98886.00;;;13.80
9985;BMP180;16737;50.932;6.780;2023-04-24T04:18:30;98897.00;;;13.80
9985;BMP180;16737;50.932;6.780;2023-04-24T04:20:57;98897.00;;;13.80
9985;BMP180;16737;50.932;6.780;2023-04-24T04:23:24;98892.00;;;13.90
9985;BMP180;16737;50.932;6.780;2023-04-24T04:25:51;98899.00;;;13.90
9985;BMP180;16737;50.932;6.780;2023-04-24T04:28:18;98887.00;;;13.90
9985;BMP180;16737;50.932;6.780;2023-04-24T04:30:46;98893.00;;;13.90
9985;BMP180;16737;50.932;6.780;2023-04-24T04:33:15;98893.00;;;13.90
9985;BMP180;16737;50.932;6.780;2023-04-24T04:35:42;98904.00;;;13.90
9985;BMP180;16737;50.932;6.780;2023-04-24T04:38:09;98905.00;;;13.90
9985;BMP180;16737;50.932;6.780;2023-04-24T04:40:36;98914.00;;;13.90
9985;BMP180;16737;50.932;6.780;2023-04-24T04:43:03;98898.00;;;13.90
9985;BMP180;16737;50.932;6.780;2023-04-24T04:45:31;98906.00;;;13.90
9985;BMP180;16737;50.932;6.780;2023-04-24T04:48:00;98912.00;;;13.90
9985;BMP180;16737;50.932;6.780;2023-04-24T04:50:29;98909.00;;;14.00
9985;BMP180;16737;50.932;6.780;2023-04-24T04:52:56;98911.00;;;14.00
9985;BMP180;16737;50.932;6.780;2023-04-24T04:55:23;98912.00;;;14.00
9985;BMP180;16737;50.932;6.780;2023-04-24T04:57:51;98910.00;;;14.00
9985;BMP180;16737;50.932;6.780;2023-04-24T05:00:19;98898.00;;;14.00
9985;BMP180;16737;50.932;6.780;2023-04-24T05:02:46;98917.00;;;14.00
9985;BMP180;16737;50.932;6.780;2023-04-24T05:05:13;98916.00;;;14.00
9985;BMP180;16737;50.932;6.780;2023-04-24T05:07:44;98914.00;;;14.00
9985;BMP180;16737;50.932;6.780;2023-04-24T05:10:12;98920.00;;;14.00
9985;BMP180;16737;50.932;6.780;2023-04-24T05:12:38;98931.00;;;14.00
9985;BMP180;16737;50.932;6.780;2023-04-24T05:15:07;98937.00;;;14.10
9985;BMP180;16737;50.932;6.780;2023-04-24T05:17:34;98924.00;;;14.10
9985;BMP180;16737;50.932;6.780;2023-04-24T05:20:01;98933.00;;;14.10
9985;BMP180;16737;50.932;6.780;2023-04-24T05:22:29;98934.00;;;14.00
9985;BMP180;16737;50.932;6.780;2023-04-24T05:24:57;98946.00;;;14.00
9985;BMP180;16737;50.932;6.780;2023-04-24T05:27:24;98947.00;;;14.00
9985;BMP180;16737;50.932;6.780;2023-04-24T05:29:51;98950.00;;;14.00
9985;BMP180;16737;50.932;6.780;2023-04-24T05:32:19;98953.00;;;14.00
9985;BMP180;16737;50.932;6.780;2023-04-24T05:34:46;98946.00;;;14.00
9985;BMP180;16737;50.932;6.780;2023-04-24T05:37:13;98902.00;;;14.00
9985;BMP180;16737;50.932;6.780;2023-04-24T05:39:40;98958.00;;;14.00
9985;BMP180;16737;50.932;6.780;2023-04-24T05:42:08;98952.00;;;14.00
9985;BMP180;16737;50.932;6.780;2023-04-24T05:44:35;98952.00;;;14.00
9985;BMP180;16737;50.932;6.780;2023-04-24T05:47:03;98956.00;;;14.00
9985;BMP180;16737;50.932;6.780;2023-04-24T05:49:30;98965.00;;;13.90
9985;BMP180;16737;50.932;6.780;2023-04-24T05:51:57;98963.00;;;13.90
9985;BMP180;16737;50.932;6.780;2023-04-24T05:54:24;98939.00;;;13.90
9985;BMP180;16737;50.932;6.780;2023-04-24T05:56:51;98958.00;;;13.90
9985;BMP180;16737;50.932;6.780;2023-04-24T05:59:21;98964.00;;;13.90
9985;BMP180;16737;50.932;6.780;2023-04-24T06:01:48;98957.00;;;13.90
9985;BMP180;16737;50.932;6.780;2023-04-24T06:04:15;98963.00;;;13.90
9985;BMP180;16737;50.932;6.780;2023-04-24T06:06:42;98970.00;;;13.90
9985;BMP180;16737;50.932;6.780;2023-04-24T06:09:09;98959.00;;;13.90
9985;BMP180;16737;50.932;6.780;2023-04-24T06:11:36;98967.00;;;13.90
9985;BMP180;16737;50.932;6.780;2023-04-24T06:14:02;98970.00;;;13.90
9985;BMP180;16737;50.932;6.780;2023-04-24T06:16:31;98910.00;;;13.90
9985;BMP180;16737;50.932;6.780;2023-04-24T06:18:58;98974.00;;;13.90
9985;BMP180;16737;50.932;6.780;2023-04-24T06:21:25;98971.00;;;13.90
9985;BMP180;16737;50.932;6.780;2023-04-24T06:23:53;98965.00;;;13.80
9985;BMP180;16737;50.932;6.780;2023-04-24T06:26:21;98980.00;;;13.80
9985;BMP180;16737;50.932;6.780;2023-04-24T06:28:50;98975.00;;;13.60
9985;BMP180;16737;50.932;6.780;2023-04-24T06:31:19;98979.00;;;13.80
9985;BMP180;16737;50.932;6.780;2023-04-24T06:33:48;98978.00;;;13.70
9985;BMP180;16737;50.932;6.780;2023-04-24T06:36:15;98984.00;;;13.70
9985;BMP180;16737;50.932;6.780;2023-04-24T06:38:43;98984.00;;;13.70
9985;BMP180;16737;50.932;6.780;2023-04-24T06:41:10;98995.00;;;13.70
9985;BMP180;16737;50.932;6.780;2023-04-24T06:43:38;98995.00;;;13.60
9985;BMP180;16737;50.932;6.780;2023-04-24T06:46:05;98992.00;;;13.60
9985;BMP180;16737;50.932;6.780;2023-04-24T06:48:32;99000.00;;;13.30
9985;BMP180;16737;50.932;6.780;2023-04-24T06:51:00;99003.00;;;13.50
9985;BMP180;16737;50.932;6.780;2023-04-24T06:53:27;99002.00;;;13.20
9985;BMP180;16737;50.932;6.780;2023-04-24T06:55:55;98994.00;;;13.40
9985;BMP180;16737;50.932;6.780;2023-04-24T06:58:22;98998.00;;;13.40
9985;BMP180;16737;50.932;6.780;2023-04-24T07:00:49;98983.00;;;13.40
9985;BMP180;16737;50.932;6.780;2023-04-24T07:03:16;98992.00;;;13.40
9985;BMP180;16737;50.932;6.780;2023-04-24T07:05:43;98989.00;;;13.30
9985;BMP180;16737;50.932;6.780;2023-04-24T07:08:11;99003.00;;;13.30
9985;BMP180;16737;50.932;6.780;2023-04-24T07:10:38;99002.00;;;13.30
9985;BMP180;16737;50.932;6.780;2023-04-24T07:13:06;99000.00;;;13.30
9985;BMP180;16737;50.932;6.780;2023-04-24T07:15:34;99000.00;;;13.20
9985;BMP180;16737;50.932;6.780;2023-04-24T07:18:01;99017.00;;;13.20
9985;BMP180;16737;50.932;6.780;2023-04-24T07:20:28;99019.00;;;13.20
9985;BMP180;16737;50.932;6.780;2023-04-24T07:22:55;99016.00;;;13.20
9985;BMP180;16737;50.932;6.780;2023-04-24T07:25:23;98953.00;;;13.10
9985;BMP180;16737;50.932;6.780;2023-04-24T07:27:50;99024.00;;;13.10
9985;BMP180;16737;50.932;6.780;2023-04-24T07:30:17;99028.00;;;13.00
9985;BMP180;16737;50.932;6.780;2023-04-24T07:32:44;99036.00;;;12.90
9985;BMP180;16737;50.932;6.780;2023-04-24T07:35:11;99039.00;;;12.90
9985;BMP180;16737;50.932;6.780;2023-04-24T07:37:38;99034.00;;;12.80
9985;BMP180;16737;50.932;6.780;2023-04-24T07:40:06;99052.00;;;12.70
9985;BMP180;16737;50.932;6.780;2023-04-24T07:42:35;99061.00;;;12.70
9985;BMP180;16737;50.932;6.780;2023-04-24T07:45:02;99067.00;;;12.60
9985;BMP180;16737;50.932;6.780;2023-04-24T07:47:29;99065.00;;;12.60
9985;BMP180;16737;50.932;6.780;2023-04-24T07:49:56;99065.00;;;12.50
9985;BMP180;16737;50.932;6.780;2023-04-24T07:52:23;99061.00;;;12.50
9985;BMP180;16737;50.932;6.780;2023-04-24T07:54:50;99063.00;;;12.40
9985;BMP180;16737;50.932;6.780;2023-04-24T07:57:24;99078.00;;;12.30
9985;BMP180;16737;50.932;6.780;2023-04-24T07:59:52;99075.00;;;12.20
9985;BMP180;16737;50.932;6.780;2023-04-24T08:02:19;99077.00;;;12.20
9985;BMP180;16737;50.932;6.780;2023-04-24T08:04:51;99078.00;;;12.10
9985;BMP180;16737;50.932;6.780;2023-04-24T08:07:18;99065.00;;;12.10
9985;BMP180;16737;50.932;6.780;2023-04-24T08:09:46;99088.00;;;12.00
9985;BMP180;16737;50.932;6.780;2023-04-24T08:12:13;99098.00;;;12.00
9985;BMP180;16737;50.932;6.780;2023-04-24T08:14:39;99099.00;;;11.90
9985;BMP180;16737;50.932;6.780;2023-04-24T08:17:08;99101.00;;;11.80
9985;BMP180;16737;50.932;6.780;2023-04-24T08:19:35;99120.00;;;11.80
9985;BMP180;16737;50.932;6.780;2023-04-24T08:22:02;99112.00;;;11.70
9985;BMP180;16737;50.932;6.780;2023-04-24T08:24:30;99114.00;;;11.60
9985;BMP180;16737;50.932;6.780;2023-04-24T08:26:56;99117.00;;;11.60
9985;BMP180;16737;50.932;6.780;2023-04-24T08:29:24;99141.00;;;11.50
9985;BMP180;16737;50.932;6.780;2023-04-24T08:31:52;99129.00;;;11.50
9985;BMP180;16737;50.932;6.780;2023-04-24T08:34:22;99134.00;;;11.40
9985;BMP180;16737;50.932;6.780;2023-04-24T08:36:49;99141.00;;;11.40
9985;BMP180;16737;50.932;6.780;2023-04-24T08:39:17;99139.00;;;11.30
9985;BMP180;16737;50.932;6.780;2023-04-24T08:41:44;99131.00;;;11.30
9985;BMP180;16737;50.932;6.780;2023-04-24T08:44:13;99158.00;;;11.30
9985;BMP180;16737;50.932;6.780;2023-04-24T08:46:43;99146.00;;;11.30
9985;BMP180;16737;50.932;6.780;2023-04-24T08:49:12;99156.00;;;11.30
9985;BMP180;16737;50.932;6.780;2023-04-24T08:51:43;99156.00;;;11.20
9985;BMP180;16737;50.932;6.780;2023-04-24T08:54:12;99161.00;;;11.20
9985;BMP180;16737;50.932;6.780;2023-04-24T08:56:43;99161.00;;;11.20
9985;BMP180;16737;50.932;6.780;2023-04-24T08:59:10;99166.00;;;11.20
9985;BMP180;16737;50.932;6.780;2023-04-24T09:01:38;99177.00;;;11.20
9985;BMP180;16737;50.932;6.780;2023-04-24T09:04:08;99183.00;;;11.30
9985;BMP180;16737;50.932;6.780;2023-04-24T09:06:37;99182.00;;;11.30
9985;BMP180;16737;50.932;6.780;2023-04-24T09:09:05;99182.00;;;11.30
9985;BMP180;16737;50.932;6.780;2023-04-24T09:11:32;99191.00;;;11.30
9985;BMP180;16737;50.932;6.780;2023-04-24T09:14:01;99195.00;;;11.30
9985;BMP180;16737;50.932;6.780;2023-04-24T09:16:28;99198.00;;;11.30
9985;BMP180;16737;50.932;6.780;2023-04-24T09:18:55;99193.00;;;11.40
9985;BMP180;16737;50.932;6.780;2023-04-24T09:21:22;99215.00;;;11.40
9985;BMP180;16737;50.932;6.780;2023-04-24T09:23:58;99217.00;;;11.40
9985;BMP180;16737;50.932;6.780;2023-04-24T09:26:29;99231.00;;;11.50
9985;BMP180;16737;50.932;6.780;2023-04-24T09:28:59;99239.00;;;11.50
9985;BMP180;16737;50.932;6.780;2023-04-24T09:31:28;99239.00;;;11.60
9985;BMP180;16737;50.932;6.780;2023-04-24T09:33:57;99247.00;;;11.60
9985;BMP180;16737;50.932;6.780;2023-04-24T09:36:29;99256.00;;;11.70
9985;BMP180;16737;50.932;6.780;2023-04-24T09:38:59;99274.00;;;11.70
9985;BMP180;16737;50.932;6.780;2023-04-24T09:41:28;99260.00;;;11.80
9985;BMP180;16737;50.932;6.780;2023-04-24T09:44:12;99265.00;;;11.80
9985;BMP180;16737;50.932;6.780;2023-04-24T09:46:40;99266.00;;;11.90
9985;BMP180;16737;50.932;6.780;2023-04-24T09:49:14;99259.00;;;11.90
9985;BMP180;16737;50.932;6.780;2023-04-24T09:51:42;99257.00;;;12.00
9985;BMP180;16737;50.932;6.780;2023-04-24T09:54:17;99278.00;;;12.00
9985;BMP180;16737;50.932;6.780;2023-04-24T09:56:49;99274.00;;;12.10
9985;BMP180;16737;50.932;6.780;2023-04-24T09:59:18;99280.00;;;12.20
9985;BMP180;16737;50.932;6.780;2023-04-24T10:01:46;99285.00;;;12.30
9985;BMP180;16737;50.932;6.780;2023-04-24T10:04:20;99287.00;;;12.20
9985;BMP180;16737;50.932;6.780;2023-04-24T10:06:49;99304.00;;;12.40
9985;BMP180;16737;50.932;6.780;2023-04-24T10:09:18;99308.00;;;12.40
9985;BMP180;16737;50.932;6.780;2023-04-24T10:11:50;99299.00;;;12.50
9985;BMP180;16737;50.932;6.780;2023-04-24T10:14:21;99315.00;;;12.50
9985;BMP180;16737;50.932;6.780;2023-04-24T10:16:49;99314.00;;;12.50
9985;BMP180;16737;50.932;6.780;2023-04-24T10:19:17;99312.00;;;12.60
9985;BMP180;16737;50.932;6.780;2023-04-24T10:21:46;99321.00;;;12.60
9985;BMP180;16737;50.932;6.780;2023-04-24T10:24:14;99327.00;;;12.70
9985;BMP180;16737;50.932;6.780;2023-04-24T10:26:42;99326.00;;;12.70
9985;BMP180;16737;50.932;6.780;2023-04-24T10:29:13;99324.00;;;12.80
9985;BMP180;16737;50.932;6.780;2023-04-24T10:31:41;99325.00;;;12.90
9985;BMP180;16737;50.932;6.780;2023-04-24T10:34:11;99332.00;;;13.00
9985;BMP180;16737;50.932;6.780;2023-04-24T10:36:43;99333.00;;;13.00
9985;BMP180;16737;50.932;6.780;2023-04-24T10:39:13;99338.00;;;13.10
9985;BMP180;16737;50.932;6.780;2023-04-24T10:41:41;99339.00;;;13.20
9985;BMP180;16737;50.932;6.780;2023-04-24T10:44:11;99339.00;;;13.30
9985;BMP180;16737;50.932;6.780;2023-04-24T10:46:45;99338.00;;;13.30
9985;BMP180;16737;50.932;6.780;2023-04-24T10:49:13;99341.00;;;13.40
9985;BMP180;16737;50.932;6.780;2023-04-24T10:51:46;99347.00;;;13.40
9985;BMP180;16737;50.932;6.780;2023-04-24T10:54:25;99336.00;;;13.50
9985;BMP180;16737;50.932;6.780;2023-04-24T10:56:53;99357.00;;;13.50
9985;BMP180;16737;50.932;6.780;2023-04-24T10:59:41;99363.00;;;13.60
9985;BMP180;16737;50.932;6.780;2023-04-24T11:02:08;99371.00;;;13.70
9985;BMP180;16737;50.932;6.780;2023-04-24T11:04:36;99354.00;;;13.70
9985;BMP180;16737;50.932;6.780;2023-04-24T11:07:03;99347.00;;;13.70
9985;BMP180;16737;50.932;6.780;2023-04-24T11:09:31;99377.00;;;13.70
9985;BMP180;16737;50.932;6.780;2023-04-24T11:12:07;99369.00;;;13.70
9985;BMP180;16737;50.932;6.780;2023-04-24T11:15:10;99371.00;;;13.70
9985;BMP180;16737;50.932;6.780;2023-04-24T11:17:38;99380.00;;;13.80
9985;BMP180;16737;50.932;6.780;2023-04-24T11:20:08;99390.00;;;13.90
9985;BMP180;16737;50.932;6.780;2023-04-24T11:22:38;99399.00;;;14.00
9985;BMP180;16737;50.932;6.780;2023-04-24T11:25:07;99388.00;;;14.00
9985;BMP180;16737;50.932;6.780;2023-04-24T11:27:40;99406.00;;;14.00
9985;BMP180;16737;50.932;6.780;2023-04-24T11:30:10;99404.00;;;14.10
9985;BMP180;16737;50.932;6.780;2023-04-24T11:32:42;99390.00;;;14.20
9985;BMP180;16737;50.932;6.780;2023-04-24T11:35:15;99410.00;;;14.30
9985;BMP180;16737;50.932;6.780;2023-04-24T11:37:44;99411.00;;;14.30
9985;BMP180;16737;50.932;6.780;2023-04-24T11:40:14;99399.00;;;14.30
9985;BMP180;16737;50.932;6.780;2023-04-24T11:42:43;99414.00;;;14.50
9985;BMP180;16737;50.932;6.780;2023-04-24T11:45:14;99389.00;;;14.50
9985;BMP180;16737;50.932;6.780;2023-04-24T11:47:44;99407.00;;;14.60
9985;BMP180;16737;50.932;6.780;2023-04-24T11:50:13;99419.00;;;14.70
9985;BMP180;16737;50.932;6.780;2023-04-24T11:52:43;99409.00;;;14.80
9985;BMP180;16737;50.932;6.780;2023-04-24T11:55:24;99418.00;;;14.90
9985;BMP180;16737;50.932;6.780;2023-04-24T11:57:55;99420.00;;;15.00
9985;BMP180;16737;50.932;6.780;2023-04-24T12:00:26;99417.00;;;15.10
9985;BMP180;16737;50.932;6.780;2023-04-24T12:03:05;99431.00;;;15.20
9985;BMP180;16737;50.932;6.780;2023-04-24T12:05:33;99423.00;;;15.30
9985;BMP180;16737;50.932;6.780;2023-04-24T12:08:00;99417.00;;;15.30
9985;BMP180;16737;50.932;6.780;2023-04-24T12:10:30;99432.00;;;15.40
9985;BMP180;16737;50.932;6.780;2023-04-24T12:12:59;99437.00;;;15.40
9985;BMP180;16737;50.932;6.780;2023-04-24T12:15:28;99411.00;;;15.40
9985;BMP180;16737;50.932;6.780;2023-04-24T12:17:56;99429.00;;;15.40
9985;BMP180;16737;50.932;6.780;2023-04-24T12:20:35;99443.00;;;15.40
9985;BMP180;16737;50.932;6.780;2023-04-24T12:23:03;99456.00;;;15.40
9985;BMP180;16737;50.932;6.780;2023-04-24T12:25:31;99463.00;;;15.30
9985;BMP180;16737;50.932;6.780;2023-04-24T12:28:10;99453.00;;;15.40
9985;BMP180;16737;50.932;6.780;2023-04-24T12:30:42;99457.00;;;15.40
9985;BMP180;16737;50.932;6.780;2023-04-24T12:33:11;99457.00;;;15.40
9985;BMP180;16737;50.932;6.780;2023-04-24T12:35:40;99464.00;;;15.40
9985;BMP180;16737;50.932;6.780;2023-04-24T12:38:09;99461.00;;;15.50
9985;BMP180;16737;50.932;6.780;2023-04-24T12:40:38;99461.00;;;15.50
9985;BMP180;16737;50.932;6.780;2023-04-24T12:43:14;99465.00;;;15.50
9985;BMP180;16737;50.932;6.780;2023-04-24T12:45:43;99458.00;;;15.50
9985;BMP180;16737;50.932;6.780;2023-04-24T12:48:10;99451.00;;;15.60
9985;BMP180;16737;50.932;6.780;2023-04-24T12:50:38;99459.00;;;15.70
9985;BMP180;16737;50.932;6.780;2023-04-24T12:53:06;99458.00;;;15.80
9985;BMP180;16737;50.932;6.780;2023-04-24T12:55:33;99449.00;;;16.00
9985;BMP180;16737;50.932;6.780;2023-04-24T12:58:00;99473.00;;;16.10
9985;BMP180;16737;50.932;6.780;2023-04-24T13:00:29;99475.00;;;16.20
9985;BMP180;16737;50.932;6.780;2023-04-24T13:02:57;99475.00;;;16.30
9985;BMP180;16737;50.932;6.780;2023-04-24T13:05:24;99479.00;;;16.50
9985;BMP180;16737;50.932;6.780;2023-04-24T13:07:51;99489.00;;;16.60
9985;BMP180;16737;50.932;6.780;2023-04-24T13:10:18;99482.00;;;16.70
9985;BMP180;16737;50.932;6.780;2023-04-24T13:12:45;99476.00;;;16.80
9985;BMP180;16737;50.932;6.780;2023-04-24T13:15:12;99481.00;;;16.90
9985;BMP180;16737;50.932;6.780;2023-04-24T13:17:40;99502.00;;;16.80
9985;BMP180;16737;50.932;6.780;2023-04-24T13:20:09;99495.00;;;16.80
9985;BMP180;16737;50.932;6.780;2023-04-24T13:22:36;99483.00;;;16.80
9985;BMP180;16737;50.932;6.780;2023-04-24T13:25:05;99500.00;;;16.80
9985;BMP180;16737;50.932;6.780;2023-04-24T13:27:33;99501.00;;;16.80
9985;BMP180;16737;50.932;6.780;2023-04-24T13:30:00;99494.00;;;16.90
9985;BMP180;16737;50.932;6.780;2023-04-24T13:32:27;99502.00;;;16.90
9985;BMP180;16737;50.932;6.780;2023-04-24T13:34:54;99493.00;;;16.90
9985;BMP180;16737;50.932;6.780;2023-04-24T13:37:22;99499.00;;;17.00
9985;BMP180;16737;50.932;6.780;2023-04-24T13:39:49;99499.00;;;17.00
9985;BMP180;16737;50.932;6.780;2023-04-24T13:42:16;99497.00;;;17.00
9985;BMP180;16737;50.932;6.780;2023-04-24T13:44:47;99496.00;;;16.90
9985;BMP180;16737;50.932;6.780;2023-04-24T13:47:14;99491.00;;;17.00
9985;BMP180;16737;50.932;6.780;2023-04-24T13:49:41;99495.00;;;17.00
9985;BMP180;16737;50.932;6.780;2023-04-24T13:52:08;99504.00;;;17.00
9985;BMP180;16737;50.932;6.780;2023-04-24T13:54:37;99496.00;;;17.10
9985;BMP180;16737;50.932;6.780;2023-04-24T13:57:04;99503.00;;;17.20
9985;BMP180;16737;50.932;6.780;2023-04-24T13:59:32;99504.00;;;17.20
9985;BMP180;16737;50.932;6.780;2023-04-24T14:01:59;99512.00;;;17.20
9985;BMP180;16737;50.932;6.780;2023-04-24T14:04:26;99503.00;;;17.20
9985;BMP180;16737;50.932;6.780;2023-04-24T14:06:53;99505.00;;;17.10
9985;BMP180;16737;50.932;6.780;2023-04-24T14:09:20;99501.00;;;17.10
9985;BMP180;16737;50.932;6.780;2023-04-24T14:11:48;99491.00;;;17.10
9985;BMP180;16737;50.932;6.780;2023-04-24T14:14:15;99500.00;;;17.10
9985;BMP180;16737;50.932;6.780;2023-04-24T14:16:45;99510.00;;;17.10
9985;BMP180;16737;50.932;6.780;2023-04-24T14:19:12;99505.00;;;17.00
9985;BMP180;16737;50.932;6.780;2023-04-24T14:21:39;99487.00;;;17.00
9985;BMP180;16737;50.932;6.780;2023-04-24T14:24:07;99441.00;;;17.00
9985;BMP180;16737;50.932;6.780;2023-04-24T14:26:37;99498.00;;;17.10
9985;BMP180;16737;50.932;6.780;2023-04-24T14:29:06;99502.00;;;17.10